Time;durP1;ratioP1;P1;durP2;ratioP2;P2;SDS_P1;SDS_P2;PMS_P1;PMS_P2;Temp;Humidity;BMP_temperature;BMP_pressure;BME280_temperature;BME280_humidity;BME280_pressure;Samples;Min_cycle;Max_cycle;Signal;HPM_P1;HPM_P2
2023/04/04 10:27:54;;;;;;;0.90;0.90;;;7.10;71.90;;;;;;5086379;27;20817;-68
2023/04/04 10:30:21;;;;;;;1.17;1.08;;;7.20;75.80;;;;;;5065413;28;20302;-67
2023/04/04 10:32:57;;;;;;;1.08;0.98;;;7.30;68.40;;;;;;5063552;28;20214;-67
2023/04/04 10:35:25;;;;;;;2.33;2.13;;;7.30;55.40;;;;;;5064593;28;20223;-66
2023/04/04 10:37:57;;;;;;;3.22;2.30;;;7.20;53.80;;;;;;5066303;28;20711;-68
2023/04/04 10:40:28;;;;;;;3.88;1.95;;;7.20;54.40;;;;;;5070330;28;20746;-68
2023/04/04 10:42:57;;;;;;;1.15;1.10;;;7.00;54.00;;;;;;5064623;28;20199;-69
2023/04/04 10:45:26;;;;;;;5.75;1.75;;;7.40;55.50;;;;;;5058494;28;20255;-67
2023/04/04 10:47:54;;;;;;;1.85;1.30;;;7.30;52.80;;;;;;5056295;28;20262;-69
2023/04/04 10:50:21;;;;;;;2.88;1.65;;;7.40;53.00;;;;;;5056448;28;20198;-68
2023/04/04 10:52:48;;;;;;;1.55;1.40;;;7.40;53.70;;;;;;5065039;28;20205;-68
2023/04/04 10:55:16;;;;;;;1.48;1.38;;;7.40;54.20;;;;;;5058832;28;20202;-69
2023/04/04 10:57:46;;;;;;;1.00;1.00;;;7.50;53.50;;;;;;5059186;28;20210;-67
2023/04/04 11:00:18;;;;;;;1.45;1.20;;;7.10;53.80;;;;;;5055145;28;20196;-67
2023/04/04 11:02:47;;;;;;;1.33;1.23;;;7.30;54.60;;;;;;5062981;28;20299;-68
2023/04/04 11:05:18;;;;;;;1.38;1.27;;;7.50;54.20;;;;;;5064825;28;20214;-67
2023/04/04 11:07:47;;;;;;;1.60;1.50;;;7.40;53.40;;;;;;5061530;28;20219;-67
2023/04/04 11:10:15;;;;;;;2.30;1.27;;;7.80;63.10;;;;;;5058458;28;20191;-67
2023/04/04 11:12:44;;;;;;;1.77;1.70;;;7.70;55.20;;;;;;5060382;28;20203;-67
2023/04/04 11:15:15;;;;;;;1.30;1.20;;;7.60;53.50;;;;;;5063515;28;20199;-68
2023/04/04 11:17:58;;;;;;;1.67;1.55;;;7.50;52.00;;;;;;5061721;28;20569;-68
2023/04/04 11:20:33;;;;;;;3.53;2.42;;;7.70;54.10;;;;;;5065895;28;20381;-67
2023/04/04 11:23:07;;;;;;;1.10;1.00;;;7.70;52.00;;;;;;5063001;28;20191;-68
2023/04/04 11:25:36;;;;;;;1.75;1.65;;;7.90;57.40;;;;;;5062534;28;20325;-68
2023/04/04 11:28:14;;;;;;;1.65;1.55;;;7.60;51.80;;;;;;5062114;28;20231;-68
2023/04/04 11:30:47;;;;;;;2.33;0.90;;;7.30;53.40;;;;;;5062930;28;20219;-67
2023/04/04 11:33:25;;;;;;;2.20;2.10;;;7.60;53.40;;;;;;5063112;28;20720;-67
2023/04/04 11:35:53;;;;;;;6.63;1.95;;;7.50;53.20;;;;;;5059895;28;20223;-67
2023/04/04 11:38:20;;;;;;;1.90;1.70;;;7.80;54.70;;;;;;5052449;28;20196;-67
2023/04/04 11:40:55;;;;;;;1.43;1.37;;;8.10;54.10;;;;;;5054385;28;20714;-68
2023/04/04 11:43:22;;;;;;;2.27;1.73;;;8.40;52.90;;;;;;5053906;28;21059;-68
2023/04/04 11:45:50;;;;;;;3.70;1.80;;;8.40;58.30;;;;;;5051257;28;21002;-68
2023/04/04 11:48:19;;;;;;;1.13;1.03;;;8.60;50.60;;;;;;5049744;28;21428;-68
2023/04/04 11:50:50;;;;;;;1.60;1.50;;;8.60;51.60;;;;;;5048581;28;21284;-68
2023/04/04 11:53:17;;;;;;;1.40;1.00;;;8.60;51.10;;;;;;5048974;28;20692;-68
2023/04/04 11:55:46;;;;;;;2.73;1.40;;;8.30;50.80;;;;;;5048582;28;20642;-68
2023/04/04 11:58:14;;;;;;;5.43;1.67;;;8.20;51.90;;;;;;5052535;28;20630;-68
2023/04/04 12:00:42;;;;;;;1.40;1.30;;;8.20;52.90;;;;;;5046653;28;20662;-68
2023/04/04 12:03:12;;;;;;;1.40;1.30;;;8.40;52.70;;;;;;5051817;28;21382;-68
2023/04/04 12:05:39;;;;;;;2.33;2.23;;;8.10;51.20;;;;;;5048277;28;21292;-68
2023/04/04 12:08:08;;;;;;;1.97;1.83;;;7.90;53.40;;;;;;5049083;28;20666;-67
2023/04/04 12:10:36;;;;;;;1.90;1.70;;;7.40;50.80;;;;;;5056225;28;20741;-66
2023/04/04 12:13:06;;;;;;;1.20;1.10;;;7.50;52.30;;;;;;5050897;28;20736;-69
2023/04/04 12:15:34;;;;;;;1.40;1.30;;;7.70;50.80;;;;;;5044361;28;20708;-67
2023/04/04 12:18:01;;;;;;;1.93;1.17;;;7.70;51.20;;;;;;5048635;28;20726;-68
2023/04/04 12:20:30;;;;;;;2.20;2.00;;;7.60;52.30;;;;;;5052066;28;20633;-68
2023/04/04 12:22:57;;;;;;;1.30;1.20;;;7.80;52.50;;;;;;5048407;28;21250;-68
2023/04/04 12:25:24;;;;;;;1.52;1.42;;;7.70;51.00;;;;;;5052122;28;20646;-67
2023/04/04 12:27:52;;;;;;;1.02;0.70;;;7.80;53.10;;;;;;5048364;28;20238;-68
2023/04/04 12:30:20;;;;;;;1.75;1.65;;;7.70;51.50;;;;;;5048500;28;20287;-68
2023/04/04 12:32:48;;;;;;;1.97;1.77;;;7.80;51.30;;;;;;5048287;28;20200;-68
2023/04/04 12:35:15;;;;;;;1.30;1.20;;;7.70;50.30;;;;;;5058794;28;20672;-67
2023/04/04 12:38:00;;;;;;;1.33;1.15;;;7.70;50.20;;;;;;5050361;28;21141;-68
2023/04/04 12:40:38;;;;;;;1.17;1.17;;;7.80;50.20;;;;;;5048508;28;20216;-67
2023/04/04 12:43:07;;;;;;;1.75;1.65;;;7.70;49.80;;;;;;5033571;28;20196;-68
2023/04/04 12:45:38;;;;;;;2.35;1.95;;;7.70;50.40;;;;;;5049104;28;20266;-67
2023/04/04 12:48:11;;;;;;;2.45;2.33;;;7.70;51.10;;;;;;5048108;28;20219;-68
2023/04/04 12:50:53;;;;;;;1.25;0.95;;;7.90;50.50;;;;;;5042594;28;20224;-67
2023/04/04 12:53:22;;;;;;;1.50;1.40;;;7.70;51.50;;;;;;5047492;28;20200;-67
2023/04/04 12:55:50;;;;;;;1.90;1.80;;;7.80;52.60;;;;;;5050167;28;20247;-68
2023/04/04 12:58:19;;;;;;;1.77;1.67;;;7.90;51.80;;;;;;5035265;28;20203;-68
2023/04/04 13:00:47;;;;;;;1.30;1.20;;;8.00;51.70;;;;;;5044428;28;20219;-66
2023/04/04 13:03:15;;;;;;;2.60;2.23;;;7.90;51.20;;;;;;5046913;28;20203;-67
2023/04/04 13:05:43;;;;;;;2.20;2.10;;;8.00;51.80;;;;;;5040287;28;20646;-67
2023/04/04 13:08:10;;;;;;;2.07;1.97;;;8.10;50.10;;;;;;5052685;28;20666;-66
2023/04/04 13:10:57;;;;;;;4.37;1.60;;;8.30;49.90;;;;;;5054060;28;20650;-66
2023/04/04 13:13:35;;;;;;;1.70;1.50;;;8.40;50.40;;;;;;5047780;28;20611;-66
2023/04/04 13:16:03;;;;;;;1.97;1.50;;;8.40;50.10;;;;;;5045300;28;21528;-66
2023/04/04 13:18:34;;;;;;;1.30;1.20;;;8.40;50.90;;;;;;5043590;28;20626;-67
2023/04/04 13:21:01;;;;;;;3.53;2.00;;;8.50;49.90;;;;;;5047491;28;20654;-67
2023/04/04 13:23:28;;;;;;;1.17;1.07;;;8.50;50.10;;;;;;5047563;28;20637;-67
2023/04/04 13:25:55;;;;;;;1.50;1.33;;;9.20;50.90;;;;;;5046716;28;20651;-66
2023/04/04 13:28:23;;;;;;;2.00;1.90;;;10.80;49.20;;;;;;5045293;28;20670;-67
2023/04/04 13:30:50;;;;;;;1.50;1.40;;;12.80;48.20;;;;;;5054370;28;20652;-67
2023/04/04 13:33:18;;;;;;;1.73;1.63;;;14.40;46.90;;;;;;5044000;28;20634;-67
2023/04/04 13:35:45;;;;;;;2.00;1.57;;;14.80;43.90;;;;;;5053375;28;21100;-67
2023/04/04 13:38:12;;;;;;;2.30;2.20;;;14.20;43.20;;;;;;5045322;28;20733;-67
2023/04/04 13:40:39;;;;;;;2.87;1.80;;;13.20;44.60;;;;;;5041520;28;20659;-68
2023/04/04 13:43:06;;;;;;;1.90;1.77;;;14.90;45.70;;;;;;5050057;28;20651;-69
2023/04/04 13:45:34;;;;;;;2.80;1.83;;;16.40;45.10;;;;;;5046022;28;21291;-69
2023/04/04 13:48:02;;;;;;;2.03;1.90;;;17.60;43.50;;;;;;5039769;28;20674;-69
2023/04/04 13:50:32;;;;;;;1.67;1.57;;;18.00;41.50;;;;;;5042666;28;20651;-70
2023/04/04 13:52:59;;;;;;;5.53;1.30;;;18.00;42.40;;;;;;5043542;28;20644;-69
2023/04/04 13:55:29;;;;;;;2.10;1.60;;;18.50;40.50;;;;;;5047785;28;20704;-71
2023/04/04 13:57:57;;;;;;;1.63;1.53;;;19.20;39.90;;;;;;5046084;28;22145;-70
2023/04/04 14:00:24;;;;;;;2.17;1.93;;;19.90;39.00;;;;;;5041525;28;20628;-70
2023/04/04 14:02:52;;;;;;;2.30;2.10;;;20.60;38.70;;;;;;5041729;28;20637;-70
2023/04/04 14:05:20;;;;;;;1.77;1.67;;;20.60;37.60;;;;;;5043523;28;20630;-70
2023/04/04 14:07:47;;;;;;;2.73;2.50;;;19.60;35.40;;;;;;5038882;28;21365;-68
2023/04/04 14:10:14;;;;;;;2.47;1.83;;;19.60;37.60;;;;;;5035544;28;20683;-69
2023/04/04 14:12:40;;;;;;;1.87;1.57;;;19.00;36.60;;;;;;5045816;28;20632;-69
2023/04/04 14:15:08;;;;;;;1.50;1.33;;;19.50;38.40;;;;;;5045876;28;21464;-69
2023/04/04 14:17:35;;;;;;;2.33;1.80;;;18.90;34.90;;;;;;5037651;28;20804;-67
2023/04/04 14:20:04;;;;;;;1.87;1.77;;;20.10;35.30;;;;;;5032735;28;20625;-69
2023/04/04 14:22:32;;;;;;;1.70;1.60;;;20.70;35.20;;;;;;5038572;28;20636;-69
2023/04/04 14:24:59;;;;;;;1.40;1.30;;;20.80;34.60;;;;;;5035443;28;20626;-69
2023/04/04 14:27:26;;;;;;;2.60;1.67;;;20.40;34.70;;;;;;5038173;28;20677;-69
2023/04/04 14:29:52;;;;;;;1.70;1.50;;;20.80;34.30;;;;;;5050495;28;20637;-69
2023/04/04 14:32:19;;;;;;;3.30;2.17;;;20.10;33.40;;;;;;5046084;28;21229;-69
2023/04/04 14:34:46;;;;;;;1.90;1.80;;;20.30;34.90;;;;;;5057821;28;20636;-67
2023/04/04 14:37:15;;;;;;;2.23;1.70;;;20.10;34.10;;;;;;5049371;28;20896;-67
2023/04/04 14:39:42;;;;;;;5.50;1.70;;;19.80;34.10;;;;;;5050013;28;20638;-68
2023/04/04 14:42:09;;;;;;;2.00;1.90;;;19.40;33.70;;;;;;5049078;28;20659;-67
2023/04/04 14:44:36;;;;;;;1.57;1.47;;;18.70;34.10;;;;;;5046171;28;21077;-68
2023/04/04 14:47:03;;;;;;;1.70;1.60;;;18.00;34.00;;;;;;5044691;28;21013;-67
2023/04/04 14:49:30;;;;;;;2.10;1.90;;;18.00;33.90;;;;;;5042900;28;20638;-67
2023/04/04 14:51:56;;;;;;;1.50;1.37;;;17.70;35.10;;;;;;5044374;28;20767;-66
2023/04/04 14:54:24;;;;;;;2.50;2.30;;;16.60;33.30;;;;;;5044331;28;20626;-67
2023/04/04 14:56:51;;;;;;;2.00;1.70;;;16.40;34.80;;;;;;5045395;28;20665;-67
2023/04/04 14:59:18;;;;;;;2.40;1.67;;;15.30;34.80;;;;;;5044806;28;20959;-67
2023/04/04 15:01:45;;;;;;;1.80;1.67;;;15.20;36.00;;;;;;5045400;28;21269;-66
2023/04/04 15:04:12;;;;;;;2.57;1.60;;;15.40;37.00;;;;;;5045370;28;20618;-67
2023/04/04 15:06:38;;;;;;;1.23;1.13;;;16.30;36.40;;;;;;5045731;28;20666;-67
2023/04/04 15:09:06;;;;;;;1.73;1.53;;;16.70;35.70;;;;;;5044185;28;21330;-67
2023/04/04 15:11:35;;;;;;;1.63;1.50;;;16.10;35.00;;;;;;5044388;28;20655;-67
2023/04/04 15:14:02;;;;;;;1.80;1.70;;;15.60;36.30;;;;;;5048843;28;20633;-67
2023/04/04 15:16:31;;;;;;;1.57;1.40;;;15.20;36.30;;;;;;5049336;28;20668;-67
2023/04/04 15:18:59;;;;;;;2.30;2.10;;;15.90;36.00;;;;;;5043314;28;20641;-67
2023/04/04 15:21:26;;;;;;;2.00;1.90;;;16.70;35.60;;;;;;5048532;28;20665;-67
2023/04/04 15:23:53;;;;;;;1.63;1.50;;;17.00;34.40;;;;;;5049407;28;20630;-67
2023/04/04 15:26:21;;;;;;;1.70;1.60;;;17.00;34.20;;;;;;5048864;28;20680;-67
2023/04/04 15:28:49;;;;;;;1.73;1.63;;;16.30;33.70;;;;;;5048542;28;20670;-66
2023/04/04 15:31:16;;;;;;;1.77;1.67;;;15.40;34.20;;;;;;5049265;28;20650;-66
2023/04/04 15:33:43;;;;;;;2.07;1.57;;;14.60;35.30;;;;;;5049336;28;20630;-66
2023/04/04 15:36:09;;;;;;;1.77;1.67;;;14.20;36.00;;;;;;5048666;28;21291;-66
2023/04/04 15:38:36;;;;;;;1.87;1.77;;;14.00;37.10;;;;;;5048790;28;20644;-66
2023/04/04 15:41:06;;;;;;;3.83;1.80;;;13.90;37.60;;;;;;5040629;28;20658;-66
2023/04/04 15:43:33;;;;;;;1.80;1.33;;;13.50;37.70;;;;;;5046331;28;20654;-67
2023/04/04 15:46:02;;;;;;;3.13;1.73;;;13.90;38.00;;;;;;5049428;28;20650;-66
2023/04/04 15:48:28;;;;;;;1.50;1.40;;;14.60;37.60;;;;;;5048018;28;20661;-67
2023/04/04 15:50:59;;;;;;;2.10;1.90;;;14.90;36.00;;;;;;5048894;28;20664;-66
2023/04/04 15:53:26;;;;;;;3.60;2.07;;;14.60;35.40;;;;;;5049370;28;20623;-66
2023/04/04 15:55:52;;;;;;;2.00;1.90;;;14.10;35.50;;;;;;5049175;28;21246;-66
2023/04/04 15:58:19;;;;;;;2.80;1.50;;;13.60;36.40;;;;;;5048087;28;20630;-67
2023/04/04 16:00:46;;;;;;;2.90;2.17;;;12.90;36.90;;;;;;5047420;28;20749;-66
2023/04/04 16:03:15;;;;;;;1.83;1.73;;;12.50;37.60;;;;;;5047960;28;20199;-66
2023/04/04 16:05:42;;;;;;;2.80;2.60;;;12.40;38.20;;;;;;5047722;28;20748;-66
2023/04/04 16:08:08;;;;;;;1.57;1.47;;;12.60;38.50;;;;;;5047489;28;20255;-67
2023/04/04 16:10:35;;;;;;;2.67;2.47;;;12.60;38.50;;;;;;5046716;28;20656;-67
2023/04/04 16:13:02;;;;;;;3.20;2.63;;;12.30;38.50;;;;;;5046623;28;20721;-66
2023/04/04 16:15:29;;;;;;;1.80;1.70;;;12.30;38.20;;;;;;5048660;28;20646;-66
2023/04/04 16:17:57;;;;;;;3.50;2.97;;;12.00;38.20;;;;;;5047484;28;21591;-66
2023/04/04 16:20:26;;;;;;;1.63;1.40;;;11.70;39.90;;;;;;5047338;28;20662;-66
2023/04/04 16:22:52;;;;;;;2.37;1.80;;;10.70;40.40;;;;;;5048460;28;20640;-65
2023/04/04 16:25:20;;;;;;;3.67;2.00;;;10.70;41.60;;;;;;5048168;28;20739;-66
2023/04/04 16:27:47;;;;;;;1.67;1.53;;;10.20;42.00;;;;;;5049646;28;20669;-65
2023/04/04 16:30:15;;;;;;;2.07;1.77;;;10.00;42.20;;;;;;5045963;28;21269;-66
2023/04/04 16:32:41;;;;;;;5.13;2.40;;;9.80;43.20;;;;;;5047532;28;20737;-66
2023/04/04 16:35:09;;;;;;;8.83;1.73;;;9.60;43.00;;;;;;5048159;28;20633;-66
2023/04/04 16:37:37;;;;;;;2.00;1.50;;;9.40;43.30;;;;;;5047948;28;20742;-66
2023/04/04 16:40:04;;;;;;;4.07;2.67;;;9.20;44.20;;;;;;5046783;28;20626;-66
2023/04/04 16:42:31;;;;;;;2.43;2.23;;;9.10;44.60;;;;;;5047823;28;20626;-66
2023/04/04 16:44:58;;;;;;;1.83;1.50;;;8.80;44.20;;;;;;5047016;28;20637;-67
2023/04/04 16:47:25;;;;;;;3.20;1.67;;;8.90;44.70;;;;;;5047153;28;20732;-66
2023/04/04 16:49:52;;;;;;;1.67;1.37;;;8.80;45.20;;;;;;5046290;28;21265;-66
2023/04/04 16:52:18;;;;;;;2.17;1.97;;;8.60;44.60;;;;;;5047237;28;20672;-66
2023/04/04 16:54:46;;;;;;;1.90;1.70;;;8.70;43.90;;;;;;5047627;28;20630;-66
2023/04/04 16:57:13;;;;;;;2.07;1.87;;;8.70;43.40;;;;;;5046491;28;20647;-66
2023/04/04 16:59:40;;;;;;;1.47;1.40;;;8.50;44.50;;;;;;5040895;28;20626;-66
2023/04/04 17:02:07;;;;;;;3.37;2.40;;;8.50;44.10;;;;;;5047403;28;20661;-66
2023/04/04 17:04:35;;;;;;;1.73;1.63;;;8.40;43.80;;;;;;5047873;28;20629;-66
2023/04/04 17:07:02;;;;;;;4.07;2.22;;;8.30;43.70;;;;;;5047175;28;20720;-66
2023/04/04 17:09:30;;;;;;;2.33;2.13;;;8.20;43.60;;;;;;5031967;28;20225;-66
2023/04/04 17:11:58;;;;;;;1.35;1.33;;;8.10;44.00;;;;;;5042911;28;20652;-66
2023/04/04 17:14:25;;;;;;;0.70;0.70;;;8.00;44.30;;;;;;5039837;28;20210;-66
2023/04/04 17:16:53;;;;;;;3.80;1.77;;;7.90;44.90;;;;;;5046852;28;20216;-67
2023/04/04 17:19:20;;;;;;;1.67;1.58;;;7.90;45.30;;;;;;5044250;28;20200;-67
2023/04/04 17:21:46;;;;;;;1.60;1.40;;;7.70;45.50;;;;;;5047450;28;20295;-67
2023/04/04 17:24:13;;;;;;;1.48;1.38;;;7.60;45.60;;;;;;5046546;28;20207;-67
2023/04/04 17:26:40;;;;;;;3.53;1.45;;;7.40;45.10;;;;;;5046101;28;20323;-67
2023/04/04 17:29:08;;;;;;;3.13;1.20;;;7.30;45.40;;;;;;5043988;28;20628;-67
2023/04/04 17:31:35;;;;;;;1.50;1.40;;;7.30;45.80;;;;;;5046382;28;20318;-67
2023/04/04 17:34:02;;;;;;;1.48;1.38;;;7.20;46.40;;;;;;5047681;28;20200;-66
2023/04/04 17:36:29;;;;;;;1.77;1.67;;;7.10;46.40;;;;;;5046667;28;20228;-67
2023/04/04 17:38:56;;;;;;;1.80;1.70;;;7.10;46.70;;;;;;5045439;28;20204;-66
2023/04/04 17:41:23;;;;;;;1.38;1.27;;;6.90;47.60;;;;;;5044061;28;20269;-67
2023/04/04 17:43:51;;;;;;;3.58;2.40;;;6.90;47.00;;;;;;5045400;28;20206;-66
2023/04/04 17:46:19;;;;;;;3.05;1.50;;;6.90;47.10;;;;;;5044993;28;20231;-66
2023/04/04 17:48:46;;;;;;;2.20;1.98;;;6.80;47.40;;;;;;5044000;28;20220;-67
2023/04/04 17:51:13;;;;;;;1.77;1.67;;;6.80;47.20;;;;;;5044389;28;20255;-67
2023/04/04 17:53:39;;;;;;;2.28;2.08;;;6.80;47.60;;;;;;5044453;28;20298;-66
2023/04/04 17:56:06;;;;;;;1.38;1.27;;;6.60;47.80;;;;;;5044804;28;20224;-67
2023/04/04 17:58:33;;;;;;;4.57;2.90;;;6.50;48.60;;;;;;5043280;28;20220;-67
2023/04/04 18:01:01;;;;;;;1.40;1.30;;;6.40;49.40;;;;;;5032127;28;20219;-67
2023/04/04 18:03:30;;;;;;;2.15;2.05;;;6.30;48.60;;;;;;5046856;28;20206;-67
2023/04/04 18:05:57;;;;;;;2.40;1.85;;;6.30;49.30;;;;;;5046263;28;20224;-68
2023/04/04 18:08:24;;;;;;;2.15;1.58;;;6.20;49.70;;;;;;5045333;28;20321;-67
2023/04/04 18:10:51;;;;;;;3.28;1.70;;;6.10;50.20;;;;;;5046097;28;20231;-66
2023/04/04 18:13:18;;;;;;;1.73;1.50;;;6.00;50.50;;;;;;5046516;28;20203;-67
2023/04/04 18:15:45;;;;;;;2.53;1.80;;;6.10;51.00;;;;;;5046118;28;20223;-67
2023/04/04 18:18:12;;;;;;;7.53;2.25;;;6.10;51.30;;;;;;5044917;28;20255;-67
2023/04/04 18:20:40;;;;;;;1.75;1.65;;;6.00;51.10;;;;;;5045024;28;20706;-67
2023/04/04 18:23:08;;;;;;;1.70;1.60;;;6.00;51.30;;;;;;5046963;28;20208;-66
2023/04/04 18:25:34;;;;;;;2.50;2.03;;;5.90;50.60;;;;;;5046176;28;20238;-66
2023/04/04 18:28:02;;;;;;;6.70;3.17;;;6.00;50.10;;;;;;5045554;28;20206;-67
2023/04/04 18:30:28;;;;;;;2.80;2.60;;;5.90;50.10;;;;;;5045258;28;20223;-66
2023/04/04 18:32:56;;;;;;;3.25;1.45;;;5.80;50.40;;;;;;5045978;28;20208;-67
2023/04/04 18:35:23;;;;;;;3.47;1.88;;;5.70;50.80;;;;;;5045337;28;20220;-67
2023/04/04 18:37:51;;;;;;;3.35;2.35;;;5.60;51.20;;;;;;5045975;28;20227;-66
2023/04/04 18:40:18;;;;;;;3.42;1.75;;;5.70;51.40;;;;;;5044770;28;20207;-66
2023/04/04 18:42:45;;;;;;;1.95;1.65;;;5.70;51.20;;;;;;5046404;28;20192;-66
2023/04/04 18:45:12;;;;;;;1.50;1.40;;;5.70;51.60;;;;;;5045474;28;20282;-67
2023/04/04 18:47:40;;;;;;;2.53;2.25;;;5.50;51.70;;;;;;5045450;28;20224;-67
2023/04/04 18:50:08;;;;;;;2.47;2.22;;;5.50;51.50;;;;;;5048024;28;20720;-68
2023/04/04 18:52:35;;;;;;;2.28;1.63;;;5.40;51.30;;;;;;5050244;28;20235;-67
2023/04/04 18:55:04;;;;;;;4.60;1.77;;;5.40;51.90;;;;;;5049370;28;20200;-67
2023/04/04 18:57:32;;;;;;;3.92;3.55;;;5.30;51.90;;;;;;5049628;28;20223;-67
2023/04/04 18:59:58;;;;;;;1.95;1.85;;;5.30;52.00;;;;;;5043356;28;20200;-66
2023/04/04 19:02:25;;;;;;;1.70;1.60;;;5.10;52.70;;;;;;5049132;28;20738;-67
2023/04/04 19:04:53;;;;;;;3.72;2.00;;;5.10;53.00;;;;;;5050071;28;20203;-67
2023/04/04 19:07:23;;;;;;;0.98;0.98;;;5.00;53.90;;;;;;5049251;28;20220;-67
2023/04/04 19:09:50;;;;;;;4.20;2.78;;;5.00;53.60;;;;;;5044651;28;20319;-67
2023/04/04 19:12:19;;;;;;;1.95;1.83;;;5.00;53.30;;;;;;5049993;28;20228;-66
2023/04/04 19:14:45;;;;;;;3.47;3.17;;;4.90;53.80;;;;;;5049610;28;20199;-67
2023/04/04 19:17:14;;;;;;;2.40;2.13;;;4.90;53.80;;;;;;5048327;28;20630;-67
2023/04/04 19:19:41;;;;;;;3.10;2.25;;;4.90;53.30;;;;;;5048009;28;20199;-67
2023/04/04 19:22:08;;;;;;;3.97;2.15;;;4.90;54.10;;;;;;5049233;28;20228;-67
2023/04/04 19:24:35;;;;;;;4.32;1.75;;;4.90;53.50;;;;;;5049626;28;20204;-67
2023/04/04 19:27:02;;;;;;;1.73;1.60;;;4.80;53.40;;;;;;5048231;28;20240;-67
2023/04/04 19:29:30;;;;;;;5.10;2.80;;;4.90;53.30;;;;;;5047009;28;20215;-67
2023/04/04 19:31:59;;;;;;;2.45;2.25;;;4.80;53.90;;;;;;5048747;28;20227;-67
2023/04/04 19:34:26;;;;;;;2.67;2.05;;;4.70;54.30;;;;;;5049281;28;20220;-66
2023/04/04 19:36:52;;;;;;;2.67;2.47;;;4.70;53.50;;;;;;5048984;28;20253;-66
2023/04/04 19:39:20;;;;;;;3.22;3.03;;;4.70;53.90;;;;;;5048779;28;20203;-66
2023/04/04 19:41:46;;;;;;;2.10;1.48;;;4.50;54.50;;;;;;5048363;28;20706;-66
2023/04/04 19:44:19;;;;;;;2.50;2.00;;;4.50;54.20;;;;;;5049108;28;20215;-66
2023/04/04 19:46:47;;;;;;;4.03;2.50;;;4.50;54.40;;;;;;5048896;28;20294;-67
2023/04/04 19:49:15;;;;;;;7.30;3.00;;;4.50;54.30;;;;;;5028695;28;20231;-67
2023/04/04 19:51:50;;;;;;;1.75;1.65;;;4.50;54.20;;;;;;5045318;28;20219;-67
2023/04/04 19:54:21;;;;;;;3.05;2.78;;;4.30;54.20;;;;;;5048842;28;20598;-66
2023/04/04 19:56:50;;;;;;;1.90;1.67;;;4.40;54.20;;;;;;5048460;28;21001;-66
2023/04/04 19:59:53;;;;;;;1.35;1.25;;;4.40;54.10;;;;;;5035804;28;20289;-66
2023/04/04 20:05:56;;;;;;;2.17;1.98;;;4.40;54.60;;;;;;5083962;28;20726;-66
2023/04/04 20:08:31;;;;;;;1.70;1.60;;;4.30;55.20;;;;;;5082502;28;20251;-67
2023/04/04 20:10:58;;;;;;;2.45;1.80;;;4.20;55.40;;;;;;5083133;28;20963;-66
2023/04/04 20:13:25;;;;;;;3.53;1.48;;;4.10;55.00;;;;;;5083566;28;20203;-66
2023/04/04 20:15:58;;;;;;;6.00;2.60;;;4.20;54.90;;;;;;5083999;28;21119;-66
2023/04/04 20:18:27;;;;;;;2.65;2.40;;;4.20;55.30;;;;;;5065841;28;20199;-66
2023/04/04 20:20:58;;;;;;;1.95;1.85;;;4.10;55.60;;;;;;5079235;28;20202;-66
2023/04/04 20:23:27;;;;;;;2.15;2.00;;;3.90;55.90;;;;;;5084053;28;20230;-66
2023/04/04 20:25:54;;;;;;;5.13;3.33;;;3.80;56.50;;;;;;5083403;28;20211;-66
2023/04/04 20:28:25;;;;;;;2.03;1.83;;;3.70;56.70;;;;;;5082706;28;20195;-66
2023/04/04 20:30:52;;;;;;;2.13;2.00;;;3.70;57.20;;;;;;5082939;28;20218;-66
2023/04/04 20:33:33;;;;;;;3.15;2.67;;;3.60;56.90;;;;;;5083186;28;20254;-66
2023/04/04 20:36:07;;;;;;;2.03;1.92;;;3.50;57.30;;;;;;5069375;28;20294;-66
2023/04/04 20:38:36;;;;;;;10.00;2.72;;;3.40;57.80;;;;;;5082678;28;20203;-66
2023/04/04 20:41:05;;;;;;;4.65;4.20;;;3.20;57.90;;;;;;5083092;28;20225;-66
2023/04/04 20:43:32;;;;;;;3.08;2.50;;;3.10;58.40;;;;;;5082686;28;20226;-66
2023/04/04 20:45:58;;;;;;;1.63;1.52;;;3.00;58.20;;;;;;5083173;28;20227;-66
2023/04/04 20:48:47;;;;;;;1.67;1.30;;;3.00;58.90;;;;;;5081005;28;20203;-66
2023/04/04 20:51:30;;;;;;;1.52;1.50;;;3.00;59.40;;;;;;5078311;28;20231;-66
2023/04/04 20:54:00;;;;;;;2.72;2.53;;;3.00;59.60;;;;;;5082530;28;20203;-70
2023/04/04 20:56:51;;;;;;;7.32;1.73;;;3.00;59.20;;;;;;5082872;28;20218;-68
2023/04/04 20:59:32;;;;;;;1.92;1.83;;;2.90;59.60;;;;;;5077936;28;20699;-70
2023/04/04 21:02:12;;;;;;;2.95;1.75;;;2.90;59.30;;;;;;5079869;28;20219;-68
2023/04/04 21:04:41;;;;;;;2.75;1.75;;;2.80;59.90;;;;;;5079609;28;20220;-68
2023/04/04 21:07:26;;;;;;;2.92;2.70;;;2.80;60.10;;;;;;5081479;28;20225;-69
2023/04/04 21:10:01;;;;;;;1.20;1.20;;;2.80;59.90;;;;;;5079962;28;20198;-69
2023/04/04 21:12:28;;;;;;;1.25;1.05;;;2.80;60.00;;;;;;5079970;28;20321;-68
2023/04/04 21:14:55;;;;;;;2.22;2.13;;;2.70;59.70;;;;;;5076945;28;20229;-68
2023/04/04 21:17:22;;;;;;;2.05;1.42;;;2.60;59.80;;;;;;5064686;28;20832;-68
2023/04/04 21:19:49;;;;;;;2.63;2.42;;;2.70;59.80;;;;;;5065291;28;20635;-68
2023/04/04 21:22:16;;;;;;;1.02;1.00;;;2.60;60.90;;;;;;5066816;28;20764;-67
2023/04/04 21:24:43;;;;;;;2.42;2.22;;;2.60;60.60;;;;;;5067233;28;20230;-67
2023/04/04 21:27:34;;;;;;;1.92;1.75;;;2.60;60.70;;;;;;5067178;28;20222;-67
2023/04/04 21:30:01;;;;;;;1.73;1.17;;;2.50;60.80;;;;;;5066401;28;20199;-67
2023/04/04 21:32:29;;;;;;;2.67;2.47;;;2.50;60.40;;;;;;5066655;28;20639;-67
2023/04/04 21:34:55;;;;;;;2.70;2.50;;;2.40;60.50;;;;;;5068067;28;20199;-67
2023/04/04 21:37:24;;;;;;;2.20;1.98;;;2.50;59.90;;;;;;5067097;28;20211;-68
2023/04/04 21:39:55;;;;;;;1.70;1.60;;;2.40;59.90;;;;;;5066290;28;20206;-68
2023/04/04 21:42:34;;;;;;;1.95;1.85;;;2.30;59.80;;;;;;5067232;28;21026;-70
2023/04/04 21:45:17;;;;;;;1.80;1.70;;;2.30;60.10;;;;;;5066774;28;20223;-70
2023/04/04 21:47:46;;;;;;;2.63;2.00;;;2.20;60.10;;;;;;5067305;28;20206;-68
2023/04/04 21:50:13;;;;;;;4.47;2.55;;;2.10;60.10;;;;;;5065527;28;20287;-68
2023/04/04 21:52:41;;;;;;;1.58;1.38;;;2.20;60.50;;;;;;5059046;28;20206;-68
2023/04/04 21:55:08;;;;;;;2.40;2.20;;;2.20;60.50;;;;;;5066989;28;20202;-68
2023/04/04 21:57:35;;;;;;;2.30;2.10;;;2.20;60.00;;;;;;5066510;28;20278;-68
2023/04/04 22:00:02;;;;;;;1.98;1.88;;;2.10;60.40;;;;;;5065237;28;20899;-68
2023/04/04 22:02:30;;;;;;;1.50;1.40;;;2.10;60.40;;;;;;5064756;28;20294;-67
2023/04/04 22:04:58;;;;;;;1.42;1.33;;;2.10;60.40;;;;;;5066485;28;20219;-67
2023/04/04 22:07:25;;;;;;;1.55;1.45;;;2.00;60.80;;;;;;5066329;28;20216;-68
2023/04/04 22:09:52;;;;;;;1.95;1.70;;;2.00;61.90;;;;;;5065045;28;20747;-68
2023/04/04 22:12:22;;;;;;;1.55;1.45;;;1.90;62.20;;;;;;5066040;28;20247;-67
2023/04/04 22:14:50;;;;;;;2.58;1.55;;;1.90;62.80;;;;;;5067149;28;20205;-67
2023/04/04 22:17:22;;;;;;;1.35;1.25;;;1.90;62.60;;;;;;5065574;28;20235;-68
2023/04/04 22:19:57;;;;;;;1.15;1.05;;;1.80;62.10;;;;;;5051335;28;20325;-68
2023/04/04 22:22:28;;;;;;;1.67;1.50;;;1.80;62.20;;;;;;5064919;28;20215;-68
2023/04/04 22:25:04;;;;;;;1.52;1.42;;;1.70;62.90;;;;;;5066981;28;20243;-67
2023/04/04 22:27:31;;;;;;;2.00;1.52;;;1.70;62.80;;;;;;5065517;28;20201;-68
2023/04/04 22:29:58;;;;;;;1.60;1.50;;;1.60;63.30;;;;;;5064925;28;20282;-68
2023/04/04 22:32:25;;;;;;;0.98;0.98;;;1.60;64.40;;;;;;5066455;28;20219;-68
2023/04/04 22:34:53;;;;;;;1.40;1.27;;;1.60;65.40;;;;;;5065791;28;20602;-68
2023/04/04 22:37:21;;;;;;;1.40;1.30;;;1.50;66.70;;;;;;5066302;28;20223;-68
2023/04/04 22:39:48;;;;;;;1.13;1.02;;;1.60;66.40;;;;;;5064839;28;21023;-68
2023/04/04 22:42:15;;;;;;;3.05;2.58;;;1.50;66.70;;;;;;5065674;28;20253;-68
2023/04/04 22:44:42;;;;;;;1.52;1.42;;;1.40;66.90;;;;;;5066432;28;20741;-68
2023/04/04 22:47:10;;;;;;;7.22;1.63;;;1.40;66.50;;;;;;5066089;28;20230;-68
2023/04/04 22:49:47;;;;;;;3.72;3.05;;;1.40;66.30;;;;;;5064754;28;20203;-68
2023/04/04 22:52:15;;;;;;;1.98;1.85;;;1.40;66.90;;;;;;5064733;28;20969;-68
2023/04/04 22:54:42;;;;;;;1.60;1.50;;;1.30;67.00;;;;;;5066007;28;20203;-68
2023/04/04 22:57:10;;;;;;;2.53;2.28;;;1.30;67.70;;;;;;5065783;28;20219;-68
2023/04/04 22:59:37;;;;;;;1.40;1.30;;;1.30;67.90;;;;;;5064818;28;20208;-68
2023/04/04 23:02:04;;;;;;;1.08;1.00;;;1.20;68.20;;;;;;5059809;28;20230;-68
2023/04/04 23:04:31;;;;;;;3.30;2.53;;;1.20;68.60;;;;;;5065401;28;20250;-68
2023/04/04 23:06:58;;;;;;;2.75;2.30;;;1.20;68.40;;;;;;5065167;28;20227;-68
2023/04/04 23:09:26;;;;;;;0.82;0.82;;;1.20;69.00;;;;;;5063739;28;20205;-67
2023/04/04 23:11:53;;;;;;;2.75;2.45;;;1.20;70.40;;;;;;5065451;28;20219;-67
2023/04/04 23:14:21;;;;;;;2.75;1.75;;;1.20;71.00;;;;;;5065135;28;20230;-68
2023/04/04 23:16:51;;;;;;;2.58;1.30;;;1.20;70.70;;;;;;5065303;28;20272;-68
2023/04/04 23:19:18;;;;;;;2.97;1.52;;;1.20;71.20;;;;;;5061975;28;20257;-68
2023/04/04 23:21:44;;;;;;;2.45;2.25;;;1.20;70.10;;;;;;5065463;28;20231;-68
2023/04/04 23:24:11;;;;;;;2.17;2.00;;;1.20;70.20;;;;;;5065377;28;20211;-68
2023/04/04 23:26:39;;;;;;;1.55;1.45;;;1.30;71.30;;;;;;5064878;28;20231;-68
2023/04/04 23:29:06;;;;;;;1.20;1.10;;;1.30;71.30;;;;;;5064141;28;20200;-67
2023/04/04 23:31:35;;;;;;;2.40;2.03;;;1.30;70.80;;;;;;5064867;28;20223;-68
2023/04/04 23:34:01;;;;;;;1.88;1.77;;;1.20;71.30;;;;;;5065485;28;20203;-68